Time;durP1;ratioP1;P1;durP2;ratioP2;P2;SDS_P1;SDS_P2;PMS_P1;PMS_P2;Temp;Humidity;BMP_temperature;BMP_pressure;BME280_temperature;BME280_humidity;BME280_pressure;Samples;Min_cycle;Max_cycle;Signal;HPM_P1;HPM_P2
2022/10/19 00:00:04;;;;;;;10.75;4.18;;;;;;;;;;6096346;23;20014;-77
2022/10/19 00:02:50;;;;;;;11.70;5.47;;;;;;;;;;6096179;23;20010;-75
2022/10/19 00:05:35;;;;;;;11.18;4.65;;;;;;;;;;6068684;23;20010;-76
2022/10/19 00:08:20;;;;;;;13.48;4.55;;;;;;;;;;6096274;23;20437;-78
2022/10/19 00:11:05;;;;;;;8.00;4.20;;;;;;;;;;6095462;23;20010;-73
2022/10/19 00:13:51;;;;;;;10.40;5.05;;;;;;;;;;6095340;23;20006;-81
2022/10/19 00:16:37;;;;;;;13.57;4.25;;;;;;;;;;6092984;23;20006;-80
2022/10/19 00:19:23;;;;;;;8.18;4.20;;;;;;;;;;6095093;23;20013;-80
2022/10/19 00:22:08;;;;;;;10.88;4.47;;;;;;;;;;6092789;23;20010;-79
2022/10/19 00:24:55;;;;;;;11.85;4.43;;;;;;;;;;6096321;23;20152;-80
2022/10/19 00:27:40;;;;;;;10.43;5.15;;;;;;;;;;6093429;23;20010;-73
2022/10/19 00:30:25;;;;;;;11.45;5.18;;;;;;;;;;6163516;23;20009;-74
2022/10/19 00:33:10;;;;;;;9.48;4.18;;;;;;;;;;6094098;23;20096;-73
2022/10/19 00:35:56;;;;;;;10.57;4.30;;;;;;;;;;6073487;23;20093;-74
2022/10/19 00:38:41;;;;;;;11.80;4.00;;;;;;;;;;6094773;23;20013;-73
2022/10/19 00:41:30;;;;;;;12.32;4.47;;;;;;;;;;6095876;23;20006;-73
2022/10/19 00:44:15;;;;;;;7.53;4.63;;;;;;;;;;6094893;23;20516;-73
2022/10/19 00:47:03;;;;;;;10.45;4.25;;;;;;;;;;6095926;23;20002;-77
2022/10/19 00:49:48;;;;;;;10.32;4.75;;;;;;;;;;6095837;23;20017;-73
2022/10/19 00:52:34;;;;;;;13.10;4.78;;;;;;;;;;6094554;23;20014;-74
2022/10/19 00:55:19;;;;;;;10.70;4.88;;;;;;;;;;6074051;23;20002;-72
2022/10/19 00:58:05;;;;;;;9.50;5.10;;;;;;;;;;6095868;23;20002;-74
2022/10/19 01:00:51;;;;;;;10.98;3.95;;;;;;;;;;6094713;23;20088;-74
2022/10/19 01:03:37;;;;;;;8.07;3.92;;;;;;;;;;6095165;23;20006;-73
2022/10/19 01:06:23;;;;;;;12.32;4.85;;;;;;;;;;6094837;23;20013;-75
2022/10/19 01:09:08;;;;;;;11.18;4.03;;;;;;;;;;6095387;23;20010;-74
2022/10/19 01:11:59;;;;;;;9.57;4.40;;;;;;;;;;6095608;23;20006;-73
2022/10/19 01:14:50;;;;;;;9.88;4.60;;;;;;;;;;6094498;23;20009;-73
2022/10/19 01:17:35;;;;;;;13.07;5.35;;;;;;;;;;6091399;23;20488;-73
2022/10/19 01:20:23;;;;;;;15.38;5.97;;;;;;;;;;6094939;23;20021;-73
2022/10/19 01:23:38;;;;;;;8.02;4.50;;;;;;;;;;6095140;23;20020;-81
2022/10/19 01:26:41;;;;;;;12.10;4.22;;;;;;;;;;6051552;23;20385;-74
2022/10/19 01:29:41;;;;;;;14.27;7.10;;;;;;;;;;6095000;23;20013;-76
2022/10/19 01:32:45;;;;;;;12.82;4.90;;;;;;;;;;6074046;23;20061;-76
2022/10/19 01:35:40;;;;;;;13.02;4.40;;;;;;;;;;6094100;23;20014;-75
2022/10/19 01:38:30;;;;;;;20.50;4.85;;;;;;;;;;6094670;23;20014;-72
2022/10/19 01:41:23;;;;;;;10.30;4.22;;;;;;;;;;6096016;23;20329;-72
2022/10/19 01:44:15;;;;;;;7.20;4.57;;;;;;;;;;6097225;23;20085;-67
2022/10/19 01:47:05;;;;;;;9.93;4.10;;;;;;;;;;6096447;23;20088;-68
2022/10/19 01:49:50;;;;;;;11.07;4.93;;;;;;;;;;6096357;23;20009;-68
2022/10/19 01:52:36;;;;;;;10.05;4.72;;;;;;;;;;6097231;23;20451;-69
2022/10/19 01:55:23;;;;;;;14.60;4.70;;;;;;;;;;6096191;23;20064;-71
2022/10/19 01:58:10;;;;;;;11.63;4.90;;;;;;;;;;6096723;23;20009;-68
2022/10/19 02:00:57;;;;;;;8.60;4.75;;;;;;;;;;6096234;23;20038;-71
2022/10/19 02:03:43;;;;;;;11.50;4.70;;;;;;;;;;6096624;23;20010;-72
2022/10/19 02:06:28;;;;;;;8.40;4.25;;;;;;;;;;6095612;23;20046;-71
2022/10/19 02:09:17;;;;;;;10.30;5.05;;;;;;;;;;6097232;23;20002;-73
2022/10/19 02:12:04;;;;;;;10.20;4.28;;;;;;;;;;6097075;23;20484;-72
2022/10/19 02:14:52;;;;;;;9.73;4.22;;;;;;;;;;6096820;23;20006;-71
2022/10/19 02:17:41;;;;;;;9.68;4.30;;;;;;;;;;6096617;23;20029;-72
2022/10/19 02:20:27;;;;;;;12.93;4.50;;;;;;;;;;6075281;23;20144;-79
2022/10/19 02:23:14;;;;;;;13.45;4.60;;;;;;;;;;6096296;23;20076;-73
2022/10/19 02:25:59;;;;;;;8.63;4.20;;;;;;;;;;6095867;23;20013;-73
2022/10/19 02:28:44;;;;;;;7.85;4.18;;;;;;;;;;6096620;23;20082;-73
2022/10/19 02:31:30;;;;;;;14.93;5.03;;;;;;;;;;6095644;23;20490;-73
2022/10/19 02:34:15;;;;;;;13.02;5.07;;;;;;;;;;6096631;23;20006;-73
2022/10/19 02:37:00;;;;;;;10.55;5.53;;;;;;;;;;6096173;23;20067;-73
2022/10/19 02:39:45;;;;;;;14.32;5.28;;;;;;;;;;6096022;23;20041;-75
2022/10/19 02:42:40;;;;;;;11.07;4.68;;;;;;;;;;6096661;23;20006;-78
2022/10/19 02:45:30;;;;;;;13.32;5.65;;;;;;;;;;6095400;23;20040;-76
2022/10/19 02:48:21;;;;;;;16.33;5.07;;;;;;;;;;6096704;23;20418;-76
2022/10/19 02:51:25;;;;;;;17.10;6.03;;;;;;;;;;6095721;23;20013;-78
2022/10/19 02:54:10;;;;;;;19.73;6.68;;;;;;;;;;6076320;23;20010;-76
2022/10/19 02:56:55;;;;;;;25.40;7.28;;;;;;;;;;6072999;23;20378;-73
2022/10/19 02:59:41;;;;;;;16.20;5.78;;;;;;;;;;6095172;23;20464;-69
2022/10/19 03:02:26;;;;;;;18.02;6.78;;;;;;;;;;6096721;23;20037;-70
2022/10/19 03:05:11;;;;;;;16.50;5.95;;;;;;;;;;6096780;23;20045;-69
2022/10/19 03:07:56;;;;;;;17.80;6.53;;;;;;;;;;6096589;23;20006;-68
2022/10/19 03:10:42;;;;;;;18.42;7.10;;;;;;;;;;6096185;23;20010;-67
2022/10/19 03:13:27;;;;;;;16.63;7.65;;;;;;;;;;6096078;23;20008;-76
2022/10/19 03:16:12;;;;;;;20.30;8.45;;;;;;;;;;6095704;23;20056;-66
2022/10/19 03:18:57;;;;;;;25.92;9.30;;;;;;;;;;6094581;23;20014;-66
2022/10/19 03:21:43;;;;;;;22.50;8.27;;;;;;;;;;6095817;23;20010;-66
2022/10/19 03:24:28;;;;;;;22.85;9.52;;;;;;;;;;6096342;23;20017;-67
2022/10/19 03:27:13;;;;;;;25.13;10.15;;;;;;;;;;6096630;23;20002;-67
2022/10/19 03:29:59;;;;;;;33.40;11.80;;;;;;;;;;6095756;23;20020;-66
2022/10/19 03:32:44;;;;;;;33.75;11.68;;;;;;;;;;6096264;23;20002;-72
2022/10/19 03:35:29;;;;;;;28.15;12.70;;;;;;;;;;6095594;23;20013;-71
2022/10/19 03:38:15;;;;;;;34.58;11.27;;;;;;;;;;6096296;23;20317;-72
2022/10/19 03:41:04;;;;;;;35.05;12.05;;;;;;;;;;6096784;23;20447;-73
2022/10/19 03:43:49;;;;;;;30.52;12.57;;;;;;;;;;6096766;23;20487;-73
2022/10/19 03:46:35;;;;;;;22.33;9.80;;;;;;;;;;6095804;23;20005;-76
2022/10/19 03:49:20;;;;;;;24.05;10.05;;;;;;;;;;6097095;23;20016;-72
2022/10/19 03:52:05;;;;;;;22.30;9.95;;;;;;;;;;6096168;23;20006;-67
2022/10/19 03:54:50;;;;;;;34.92;10.60;;;;;;;;;;6096793;23;20014;-71
2022/10/19 03:57:36;;;;;;;25.02;10.98;;;;;;;;;;6115918;23;20502;-73
2022/10/19 04:00:21;;;;;;;29.27;10.27;;;;;;;;;;6095763;23;20017;-71
2022/10/19 04:03:07;;;;;;;28.10;12.27;;;;;;;;;;6115381;23;19998;-70
2022/10/19 04:05:52;;;;;;;33.60;11.65;;;;;;;;;;6094955;23;20132;-70
2022/10/19 04:08:37;;;;;;;32.15;11.95;;;;;;;;;;6095961;23;20017;-69
2022/10/19 04:11:24;;;;;;;30.70;13.25;;;;;;;;;;6095639;23;20489;-75
2022/10/19 04:14:10;;;;;;;42.88;15.35;;;;;;;;;;6095545;23;20467;-72
2022/10/19 04:16:55;;;;;;;30.98;12.40;;;;;;;;;;6095241;23;20113;-73
2022/10/19 04:19:40;;;;;;;32.95;13.27;;;;;;;;;;6095176;23;20010;-73
2022/10/19 04:22:26;;;;;;;25.88;11.90;;;;;;;;;;6096621;23;20429;-73
2022/10/19 04:25:11;;;;;;;31.60;14.05;;;;;;;;;;6095923;23;20010;-73
2022/10/19 04:27:56;;;;;;;29.77;14.13;;;;;;;;;;6096069;23;20437;-81
2022/10/19 04:30:41;;;;;;;30.75;15.50;;;;;;;;;;6115236;23;20005;-80
2022/10/19 04:33:30;;;;;;;23.35;12.77;;;;;;;;;;6096545;23;20089;-81
2022/10/19 04:36:15;;;;;;;31.25;15.13;;;;;;;;;;6094955;23;20013;-82
2022/10/19 04:39:00;;;;;;;30.83;13.30;;;;;;;;;;6096160;23;20013;-81
2022/10/19 04:41:45;;;;;;;23.55;13.13;;;;;;;;;;6116069;23;20009;-81
2022/10/19 04:44:31;;;;;;;26.65;13.77;;;;;;;;;;6096745;23;20028;-81
2022/10/19 04:47:16;;;;;;;29.85;14.52;;;;;;;;;;6096168;23;20006;-73
2022/10/19 04:50:01;;;;;;;29.83;12.98;;;;;;;;;;6116820;23;20002;-73
2022/10/19 04:52:47;;;;;;;32.08;14.52;;;;;;;;;;6095258;23;20006;-73
2022/10/19 04:55:32;;;;;;;26.55;13.00;;;;;;;;;;6115296;23;20012;-73
2022/10/19 04:58:17;;;;;;;28.88;13.65;;;;;;;;;;6116113;23;20010;-73
2022/10/19 05:01:21;;;;;;;23.50;13.02;;;;;;;;;;6095355;23;20010;-73
2022/10/19 05:04:08;;;;;;;31.55;14.00;;;;;;;;;;6096025;23;20068;-74
2022/10/19 05:06:53;;;;;;;26.95;13.25;;;;;;;;;;6095085;23;20010;-73
2022/10/19 05:09:39;;;;;;;25.13;13.07;;;;;;;;;;6094765;23;20808;-75
2022/10/19 05:12:24;;;;;;;21.73;11.98;;;;;;;;;;6094970;23;20013;-73
2022/10/19 05:15:09;;;;;;;25.67;12.93;;;;;;;;;;6095727;23;20006;-74
2022/10/19 05:17:55;;;;;;;25.08;13.13;;;;;;;;;;6116785;23;20310;-74
2022/10/19 05:20:40;;;;;;;22.90;13.38;;;;;;;;;;6096625;23;20478;-75
2022/10/19 05:23:25;;;;;;;23.85;12.73;;;;;;;;;;6097468;23;20018;-72
2022/10/19 05:26:12;;;;;;;29.80;13.60;;;;;;;;;;6096284;23;20017;-67
2022/10/19 05:29:00;;;;;;;25.15;14.88;;;;;;;;;;6077068;23;20313;-68
2022/10/19 05:31:45;;;;;;;21.08;12.65;;;;;;;;;;6095946;23;20025;-67
2022/10/19 05:34:30;;;;;;;21.65;13.02;;;;;;;;;;6097572;23;20002;-67
2022/10/19 05:37:16;;;;;;;28.55;13.10;;;;;;;;;;6096777;23;20017;-71
2022/10/19 05:40:01;;;;;;;25.30;12.27;;;;;;;;;;6117802;23;20013;-75
2022/10/19 05:42:46;;;;;;;22.90;13.45;;;;;;;;;;6077399;23;20493;-77
2022/10/19 05:45:32;;;;;;;24.70;12.75;;;;;;;;;;6168395;23;20017;-74
2022/10/19 05:48:17;;;;;;;22.27;12.35;;;;;;;;;;6096688;23;20505;-74
2022/10/19 05:51:04;;;;;;;25.00;14.48;;;;;;;;;;6095056;23;20013;-74
2022/10/19 05:53:49;;;;;;;18.83;12.25;;;;;;;;;;6096315;23;20396;-74
2022/10/19 05:56:35;;;;;;;20.65;12.88;;;;;;;;;;6096598;23;20014;-77
2022/10/19 05:59:20;;;;;;;20.27;13.35;;;;;;;;;;6112216;23;20006;-76
2022/10/19 06:02:05;;;;;;;21.17;12.40;;;;;;;;;;6095188;23;20046;-77
2022/10/19 06:04:51;;;;;;;21.17;12.95;;;;;;;;;;6097357;23;20442;-73
2022/10/19 06:07:36;;;;;;;20.88;13.27;;;;;;;;;;6096936;23;20016;-73
2022/10/19 06:10:21;;;;;;;19.13;13.38;;;;;;;;;;6097975;23;20473;-74
2022/10/19 06:13:07;;;;;;;21.45;13.30;;;;;;;;;;6117284;23;20491;-64
2022/10/19 06:15:52;;;;;;;19.40;11.98;;;;;;;;;;6095814;23;20306;-63
2022/10/19 06:18:37;;;;;;;23.25;12.48;;;;;;;;;;6097085;23;20010;-62
2022/10/19 06:21:24;;;;;;;22.17;13.20;;;;;;;;;;6095636;23;20440;-61
2022/10/19 06:24:09;;;;;;;24.85;13.30;;;;;;;;;;6097364;23;20010;-60
2022/10/19 06:26:54;;;;;;;22.38;13.68;;;;;;;;;;6115818;23;20010;-61
2022/10/19 06:29:40;;;;;;;21.73;12.93;;;;;;;;;;6113800;23;20437;-63
2022/10/19 06:32:25;;;;;;;27.65;12.95;;;;;;;;;;6093490;23;20424;-62
2022/10/19 06:35:10;;;;;;;21.30;13.25;;;;;;;;;;6094516;23;20059;-63
2022/10/19 06:37:56;;;;;;;19.48;13.15;;;;;;;;;;6095328;23;20010;-75
2022/10/19 06:40:41;;;;;;;22.25;12.98;;;;;;;;;;6094907;23;20332;-69
2022/10/19 06:43:27;;;;;;;19.67;12.73;;;;;;;;;;6115849;23;20440;-69
2022/10/19 06:46:19;;;;;;;24.40;14.43;;;;;;;;;;6114447;23;20041;-68
2022/10/19 06:49:04;;;;;;;19.52;14.35;;;;;;;;;;6095505;23;20010;-68
2022/10/19 06:51:49;;;;;;;17.98;13.70;;;;;;;;;;6114878;23;20005;-66
2022/10/19 06:54:34;;;;;;;20.20;11.07;;;;;;;;;;6094682;23;20045;-74
2022/10/19 06:57:20;;;;;;;18.65;12.13;;;;;;;;;;6075456;23;20329;-72
2022/10/19 07:00:05;;;;;;;15.15;12.00;;;;;;;;;;6095603;23;20002;-74
2022/10/19 07:02:50;;;;;;;18.65;12.20;;;;;;;;;;6095198;23;20002;-73
2022/10/19 07:05:36;;;;;;;19.33;12.13;;;;;;;;;;6095428;23;19998;-74
2022/10/19 07:08:21;;;;;;;20.90;12.73;;;;;;;;;;6095189;23;20006;-73
2022/10/19 07:11:08;;;;;;;17.08;12.73;;;;;;;;;;6095499;23;20013;-77
2022/10/19 07:13:53;;;;;;;22.80;12.65;;;;;;;;;;6094377;23;20063;-78
2022/10/19 07:16:39;;;;;;;19.05;12.05;;;;;;;;;;6074631;23;20013;-75
2022/10/19 07:19:25;;;;;;;19.38;11.25;;;;;;;;;;6095714;23;20425;-76
2022/10/19 07:22:10;;;;;;;21.25;12.57;;;;;;;;;;6096937;23;20006;-75
2022/10/19 07:24:55;;;;;;;19.05;11.93;;;;;;;;;;6097115;23;20036;-76
2022/10/19 07:27:40;;;;;;;20.08;12.52;;;;;;;;;;6116231;23;20038;-75
2022/10/19 07:30:26;;;;;;;15.23;10.88;;;;;;;;;;6095816;23;20130;-73
2022/10/19 07:33:11;;;;;;;16.25;11.13;;;;;;;;;;6095213;23;20010;-76
2022/10/19 07:36:00;;;;;;;14.30;10.13;;;;;;;;;;6096068;23;20017;-75
2022/10/19 07:38:45;;;;;;;17.48;11.30;;;;;;;;;;6115585;23;20014;-74
2022/10/19 07:41:32;;;;;;;18.35;11.80;;;;;;;;;;6115607;23;20286;-74
2022/10/19 07:44:17;;;;;;;13.88;9.15;;;;;;;;;;6095758;23;20005;-72
2022/10/19 07:47:03;;;;;;;12.63;8.20;;;;;;;;;;6095943;23;20045;-73
2022/10/19 07:49:48;;;;;;;13.82;7.63;;;;;;;;;;6095440;23;20445;-77
2022/10/19 07:52:34;;;;;;;14.00;8.57;;;;;;;;;;6095009;23;20045;-74
2022/10/19 07:55:19;;;;;;;10.77;7.95;;;;;;;;;;6095739;23;20010;-73
2022/10/19 07:58:04;;;;;;;11.35;7.95;;;;;;;;;;6095764;23;20010;-74
2022/10/19 08:00:49;;;;;;;13.88;8.57;;;;;;;;;;6094857;23;20421;-73
2022/10/19 08:03:35;;;;;;;14.93;7.82;;;;;;;;;;6074557;23;20085;-75
2022/10/19 08:06:20;;;;;;;12.57;6.82;;;;;;;;;;6095385;23;20093;-72
2022/10/19 08:09:05;;;;;;;12.05;8.35;;;;;;;;;;6075934;23;20009;-75
2022/10/19 08:11:51;;;;;;;15.68;8.55;;;;;;;;;;6096336;23;20016;-76
2022/10/19 08:14:36;;;;;;;10.25;7.25;;;;;;;;;;6096658;23;20469;-76
2022/10/19 08:17:21;;;;;;;13.63;8.02;;;;;;;;;;6096010;23;20002;-77
2022/10/19 08:20:07;;;;;;;11.05;7.25;;;;;;;;;;6097082;23;20453;-78
2022/10/19 08:22:52;;;;;;;13.20;7.60;;;;;;;;;;6096100;23;20013;-76
2022/10/19 08:25:37;;;;;;;12.30;8.20;;;;;;;;;;6096488;23;20380;-70
2022/10/19 08:28:22;;;;;;;11.38;7.75;;;;;;;;;;6096263;23;20089;-73
2022/10/19 08:31:12;;;;;;;9.80;7.45;;;;;;;;;;6073237;23;20438;-70
2022/10/19 08:33:58;;;;;;;11.35;8.27;;;;;;;;;;6085623;23;20069;-66
2022/10/19 08:36:43;;;;;;;14.00;9.40;;;;;;;;;;6094629;23;20018;-69
2022/10/19 08:39:28;;;;;;;17.10;8.35;;;;;;;;;;6093926;23;20028;-69
2022/10/19 08:42:16;;;;;;;10.93;7.55;;;;;;;;;;6094454;23;20002;-68
2022/10/19 08:45:22;;;;;;;10.52;7.22;;;;;;;;;;6092476;23;20072;-69
2022/10/19 08:48:31;;;;;;;12.73;8.60;;;;;;;;;;6091261;23;20010;-60
2022/10/19 08:51:17;;;;;;;12.25;7.68;;;;;;;;;;6091955;23;20016;-66
2022/10/19 08:54:10;;;;;;;10.68;7.65;;;;;;;;;;6094523;23;20371;-61
2022/10/19 08:57:14;;;;;;;11.85;7.95;;;;;;;;;;6094099;23;20010;-63
2022/10/19 09:00:02;;;;;;;12.70;7.60;;;;;;;;;;6095052;23;20010;-64
2022/10/19 09:03:04;;;;;;;10.95;6.55;;;;;;;;;;6093543;23;20006;-66
2022/10/19 09:05:49;;;;;;;8.65;6.03;;;;;;;;;;6073520;23;20010;-70
2022/10/19 09:08:36;;;;;;;11.18;6.30;;;;;;;;;;6094867;23;20068;-70
2022/10/19 09:11:24;;;;;;;8.02;5.28;;;;;;;;;;6095096;23;20018;-71
2022/10/19 09:14:12;;;;;;;11.57;6.20;;;;;;;;;;6093161;23;20081;-71
2022/10/19 09:17:00;;;;;;;8.25;5.53;;;;;;;;;;6094177;23;20064;-70
2022/10/19 09:19:45;;;;;;;10.48;6.70;;;;;;;;;;6094947;23;20071;-69
2022/10/19 09:22:32;;;;;;;9.38;5.60;;;;;;;;;;6094259;23;20018;-66
2022/10/19 09:25:19;;;;;;;7.40;5.40;;;;;;;;;;6093972;23;20002;-62
2022/10/19 09:28:16;;;;;;;7.75;5.65;;;;;;;;;;6092963;23;20457;-62
2022/10/19 09:31:01;;;;;;;9.80;5.93;;;;;;;;;;6093783;23;20010;-61
2022/10/19 09:33:51;;;;;;;8.40;5.10;;;;;;;;;;6093740;23;20002;-63
2022/10/19 09:36:39;;;;;;;7.93;5.80;;;;;;;;;;6089905;23;20062;-65
2022/10/19 09:39:25;;;;;;;8.40;5.88;;;;;;;;;;6092209;23;20021;-67
2022/10/19 09:42:21;;;;;;;9.95;5.75;;;;;;;;;;6063635;23;20006;-64
2022/10/19 09:45:12;;;;;;;7.95;5.47;;;;;;;;;;6083430;23;20396;-64
2022/10/19 09:47:58;;;;;;;9.43;6.38;;;;;;;;;;6083992;23;20496;-65
2022/10/19 09:50:44;;;;;;;10.07;5.47;;;;;;;;;;6093629;23;20063;-63
2022/10/19 09:53:29;;;;;;;8.80;5.55;;;;;;;;;;6085266;23;20300;-66
2022/10/19 09:56:22;;;;;;;9.32;5.47;;;;;;;;;;6082773;23;20416;-63
2022/10/19 09:59:19;;;;;;;8.45;5.07;;;;;;;;;;6094031;23;20113;-61
2022/10/19 10:02:16;;;;;;;8.75;4.80;;;;;;;;;;6094514;23;20067;-67
2022/10/19 10:05:06;;;;;;;7.03;4.38;;;;;;;;;;6096884;23;20012;-69
2022/10/19 10:07:53;;;;;;;5.95;4.07;;;;;;;;;;6094561;23;20016;-70
2022/10/19 10:10:42;;;;;;;6.90;4.75;;;;;;;;;;6096483;23;20034;-67
2022/10/19 10:13:27;;;;;;;5.60;3.85;;;;;;;;;;6096615;23;20006;-72
2022/10/19 10:16:14;;;;;;;9.23;4.43;;;;;;;;;;6095233;23;20389;-64
2022/10/19 10:19:01;;;;;;;8.32;4.57;;;;;;;;;;6075607;23;20006;-66
2022/10/19 10:21:54;;;;;;;5.75;3.97;;;;;;;;;;6095080;23;20006;-63
2022/10/19 10:24:50;;;;;;;6.20;3.80;;;;;;;;;;6094880;23;20387;-63
2022/10/19 10:27:36;;;;;;;7.07;4.18;;;;;;;;;;6095308;23;20017;-68
2022/10/19 10:30:21;;;;;;;5.38;3.50;;;;;;;;;;6095845;23;20132;-68
2022/10/19 10:33:13;;;;;;;3.85;2.60;;;;;;;;;;6096930;23;20306;-70
2022/10/19 10:36:22;;;;;;;6.25;3.22;;;;;;;;;;6097238;23;20021;-68
2022/10/19 10:39:14;;;;;;;3.92;2.97;;;;;;;;;;6112712;22;20048;-75
2022/10/19 10:42:04;;;;;;;5.75;3.50;;;;;;;;;;6118043;23;20006;-79
2022/10/19 10:44:50;;;;;;;7.50;3.58;;;;;;;;;;6104139;23;20436;-75
2022/10/19 10:47:38;;;;;;;4.97;3.47;;;;;;;;;;6126628;23;20005;-76
2022/10/19 10:50:25;;;;;;;8.65;4.38;;;;;;;;;;6125308;23;20006;-77
2022/10/19 10:53:29;;;;;;;5.57;3.28;;;;;;;;;;6120783;23;20013;-79
2022/10/19 10:56:34;;;;;;;7.15;3.72;;;;;;;;;;6118472;23;20009;-76
2022/10/19 10:59:27;;;;;;;5.40;3.70;;;;;;;;;;6117663;23;20203;-63
2022/10/19 11:02:15;;;;;;;7.35;3.72;;;;;;;;;;6119498;23;20020;-68
2022/10/19 11:05:07;;;;;;;8.40;4.03;;;;;;;;;;6120336;23;20006;-69
2022/10/19 11:07:54;;;;;;;5.82;3.80;;;;;;;;;;6115638;23;20013;-66
2022/10/19 11:10:47;;;;;;;4.78;3.83;;;;;;;;;;6121036;23;20016;-65
2022/10/19 11:13:36;;;;;;;7.50;3.80;;;;;;;;;;6116248;23;20365;-60
2022/10/19 11:16:31;;;;;;;4.00;2.53;;;;;;;;;;6095513;23;20161;-65
2022/10/19 11:19:16;;;;;;;6.38;3.30;;;;;;;;;;6125816;23;20013;-66
2022/10/19 11:22:14;;;;;;;3.65;2.80;;;;;;;;;;6125153;23;20011;-68
2022/10/19 11:25:18;;;;;;;6.13;3.15;;;;;;;;;;6124440;23;20045;-66
2022/10/19 11:28:03;;;;;;;5.30;2.78;;;;;;;;;;6125187;23;20437;-67
2022/10/19 11:30:58;;;;;;;6.32;3.35;;;;;;;;;;6122167;23;20001;-78
2022/10/19 11:33:53;;;;;;;5.57;2.78;;;;;;;;;;6123649;23;20047;-70
2022/10/19 11:36:59;;;;;;;3.50;2.55;;;;;;;;;;6102290;23;20009;-71
2022/10/19 11:39:44;;;;;;;7.47;2.60;;;;;;;;;;6232439;22;20505;-71
2022/10/19 11:42:29;;;;;;;5.07;3.47;;;;;;;;;;6104319;23;20306;-69
2022/10/19 11:45:19;;;;;;;12.27;2.83;;;;;;;;;;6232297;22;20445;-70
2022/10/19 11:48:04;;;;;;;;;;;;;;;;;;6233197;22;20009;-73
2022/10/19 11:51:05;;;;;;;6.18;3.33;;;;;;;;;;6126098;23;19926;-73
2022/10/19 11:54:03;;;;;;;5.25;2.92;;;;;;;;;;6105649;23;20108;-75
2022/10/19 11:57:00;;;;;;;8.25;2.92;;;;;;;;;;6104532;23;20020;-75
2022/10/19 11:59:45;;;;;;;6.35;4.40;;;;;;;;;;6231499;22;20020;-77
2022/10/19 12:02:49;;;;;;;5.38;3.45;;;;;;;;;;6229286;22;20001;-76
2022/10/19 12:05:49;;;;;;;5.10;3.72;;;;;;;;;;6102314;23;20020;-76
2022/10/19 12:08:34;;;;;;;4.72;2.80;;;;;;;;;;6231885;22;20086;-74
2022/10/19 12:11:20;;;;;;;6.13;3.50;;;;;;;;;;6102175;23;20005;-73
2022/10/19 12:14:10;;;;;;;5.53;3.42;;;;;;;;;;6231168;22;20012;-77
2022/10/19 12:16:57;;;;;;;5.95;3.55;;;;;;;;;;6231160;22;20013;-78
2022/10/19 12:19:48;;;;;;;6.72;4.05;;;;;;;;;;6122968;23;20067;-77
2022/10/19 12:22:36;;;;;;;4.63;3.42;;;;;;;;;;6231214;22;20011;-75
2022/10/19 12:25:21;;;;;;;6.10;4.05;;;;;;;;;;6230911;22;20005;-74
2022/10/19 12:28:08;;;;;;;8.13;4.10;;;;;;;;;;6104027;23;20024;-69
2022/10/19 12:30:54;;;;;;;4.13;3.20;;;;;;;;;;6231435;22;20020;-71
2022/10/19 12:33:46;;;;;;;7.47;3.47;;;;;;;;;;6230587;22;20009;-70
2022/10/19 12:36:36;;;;;;;8.07;4.35;;;;;;;;;;6101894;23;20361;-71
2022/10/19 12:39:25;;;;;;;5.32;3.65;;;;;;;;;;6233208;22;20009;-70
2022/10/19 12:42:13;;;;;;;7.82;3.70;;;;;;;;;;6231866;22;20037;-69
2022/10/19 12:44:58;;;;;;;4.88;3.53;;;;;;;;;;6233583;22;20009;-68
2022/10/19 12:48:03;;;;;;;4.97;3.80;;;;;;;;;;6102296;23;20012;-74
2022/10/19 12:50:48;;;;;;;5.90;3.53;;;;;;;;;;6229551;22;20448;-73
2022/10/19 12:53:35;;;;;;;7.80;4.18;;;;;;;;;;6103068;23;20063;-74
2022/10/19 12:56:23;;;;;;;6.03;3.80;;;;;;;;;;6104662;23;20491;-75
2022/10/19 12:59:19;;;;;;;4.35;3.60;;;;;;;;;;6101824;23;20139;-79
2022/10/19 13:02:05;;;;;;;5.70;2.97;;;;;;;;;;6228602;22;20005;-70
2022/10/19 13:04:51;;;;;;;7.30;3.58;;;;;;;;;;6231700;22;20010;-80
2022/10/19 13:07:37;;;;;;;6.53;3.53;;;;;;;;;;6103012;23;20010;-76
2022/10/19 13:10:24;;;;;;;6.05;3.72;;;;;;;;;;6233580;22;20017;-78
2022/10/19 13:13:29;;;;;;;7.60;3.40;;;;;;;;;;6230247;22;20013;-79
2022/10/19 13:16:31;;;;;;;6.38;3.25;;;;;;;;;;6123408;23;20006;-75
2022/10/19 13:19:17;;;;;;;4.15;2.90;;;;;;;;;;6231605;22;20082;-76
2022/10/19 13:22:21;;;;;;;5.35;3.90;;;;;;;;;;6103200;23;20071;-71
2022/10/19 13:25:16;;;;;;;7.80;3.80;;;;;;;;;;6234665;22;20040;-70
2022/10/19 13:28:16;;;;;;;6.05;4.00;;;;;;;;;;6230775;22;20080;-71
2022/10/19 13:31:02;;;;;;;7.18;3.70;;;;;;;;;;6231979;22;20071;-70
2022/10/19 13:33:48;;;;;;;5.68;3.65;;;;;;;;;;6231302;22;20013;-71
2022/10/19 13:36:37;;;;;;;5.38;3.60;;;;;;;;;;6103996;23;20019;-71
2022/10/19 13:39:25;;;;;;;7.10;4.03;;;;;;;;;;6146054;23;20440;-73
2022/10/19 13:42:24;;;;;;;6.40;3.95;;;;;;;;;;6122865;23;20010;-75
2022/10/19 13:45:22;;;;;;;5.65;3.75;;;;;;;;;;6232140;22;20040;-74
2022/10/19 13:48:17;;;;;;;4.88;3.40;;;;;;;;;;6145622;23;20399;-74
2022/10/19 13:51:25;;;;;;;5.15;3.42;;;;;;;;;;6125263;23;20009;-77
2022/10/19 13:54:17;;;;;;;5.93;3.55;;;;;;;;;;6115080;23;20448;-74
2022/10/19 13:57:20;;;;;;;4.65;3.03;;;;;;;;;;6233065;22;20456;-73
2022/10/19 14:00:20;;;;;;;5.80;3.13;;;;;;;;;;6124565;23;20066;-79
2022/10/19 14:03:18;;;;;;;7.40;3.60;;;;;;;;;;6103533;23;20006;-77
2022/10/19 14:06:03;;;;;;;6.32;3.33;;;;;;;;;;6231748;22;20047;-75
2022/10/19 14:08:57;;;;;;;5.85;3.97;;;;;;;;;;6232438;22;20001;-79
2022/10/19 14:11:44;;;;;;;4.57;2.85;;;;;;;;;;6230188;22;20016;-78
2022/10/19 14:14:29;;;;;;;5.25;2.92;;;;;;;;;;6102846;23;20016;-79
2022/10/19 14:17:23;;;;;;;3.22;2.42;;;;;;;;;;6121941;23;20041;-74
2022/10/19 14:23:44;;;;;;;4.40;2.70;;;;;;;;;;6113533;23;20088;-74
2022/10/19 14:26:30;;;;;;;4.75;3.25;;;;;;;;;;6232601;22;20074;-73
2022/10/19 14:30:01;;;;;;;5.88;3.53;;;;;;;;;;6124984;23;20024;-75
2022/10/19 14:32:56;;;;;;;4.95;3.03;;;;;;;;;;6123302;23;20159;-72
2022/10/19 14:35:44;;;;;;;5.53;3.22;;;;;;;;;;6232057;22;20035;-70
2022/10/19 14:38:33;;;;;;;9.18;4.53;;;;;;;;;;6232203;22;20009;-75
2022/10/19 14:41:25;;;;;;;6.43;3.47;;;;;;;;;;6233080;22;20193;-76
2022/10/19 14:44:33;;;;;;;10.52;3.03;;;;;;;;;;6232761;22;20021;-73
2022/10/19 14:47:22;;;;;;;8.00;3.28;;;;;;;;;;6232001;22;20021;-74
2022/10/19 14:50:08;;;;;;;;;;;;;;;;;;6104809;23;20021;-73
2022/10/19 14:52:57;;;;;;;8.02;3.45;;;;;;;;;;6124380;23;19947;-71
2022/10/19 14:55:42;;;;;;;;;;;;;;;;;;6104692;23;20006;-78
2022/10/19 14:58:32;;;;;;;7.97;3.97;;;;;;;;;;6230456;22;19911;-77
2022/10/19 15:01:17;;;;;;;;;;;;;;;;;;6225399;22;20005;-76
2022/10/19 15:04:03;;;;;;;4.55;3.17;;;;;;;;;;6119520;22;20235;-77
2022/10/19 15:06:48;;;;;;;5.55;3.40;;;;;;;;;;6233232;22;20420;-75
2022/10/19 15:09:36;;;;;;;5.13;3.22;;;;;;;;;;6124086;23;20083;-79
2022/10/19 15:12:32;;;;;;;3.70;2.80;;;;;;;;;;6233211;22;20009;-78
2022/10/19 15:15:25;;;;;;;5.15;3.10;;;;;;;;;;6125505;23;20033;-75
2022/10/19 15:18:14;;;;;;;6.13;3.38;;;;;;;;;;6233067;22;20043;-73
2022/10/19 15:21:04;;;;;;;8.70;2.88;;;;;;;;;;6105332;23;20040;-75
2022/10/19 15:23:50;;;;;;;4.78;2.72;;;;;;;;;;6105198;23;20037;-73
2022/10/19 15:26:36;;;;;;;6.70;3.83;;;;;;;;;;6105843;23;20008;-74
2022/10/19 15:29:26;;;;;;;4.80;2.42;;;;;;;;;;6106068;23;20006;-73
2022/10/19 15:32:12;;;;;;;6.22;2.78;;;;;;;;;;6103768;23;20009;-79
2022/10/19 15:34:58;;;;;;;5.47;2.80;;;;;;;;;;6125975;23;20005;-78
2022/10/19 15:37:44;;;;;;;9.98;3.13;;;;;;;;;;6125491;23;20029;-78
2022/10/19 15:40:33;;;;;;;5.50;2.92;;;;;;;;;;6105654;23;20431;-77
2022/10/19 15:43:18;;;;;;;;;;;;;;;;;;6234172;22;20002;-79
2022/10/19 15:46:05;;;;;;;8.63;2.85;;;;;;;;;;6125359;23;19908;-78
2022/10/19 15:48:51;;;;;;;6.53;2.80;;;;;;;;;;6233626;22;20376;-74
2022/10/19 15:51:40;;;;;;;7.25;3.13;;;;;;;;;;6105648;23;20049;-72
2022/10/19 15:54:25;;;;;;;7.05;3.13;;;;;;;;;;6232800;22;20080;-74
2022/10/19 15:57:40;;;;;;;6.03;2.72;;;;;;;;;;6233072;22;20051;-72
2022/10/19 16:00:25;;;;;;;5.72;2.90;;;;;;;;;;6130007;23;20440;-73
2022/10/19 16:03:11;;;;;;;4.10;2.67;;;;;;;;;;6104518;23;20013;-73
2022/10/19 16:05:56;;;;;;;8.90;4.45;;;;;;;;;;6233302;22;20086;-76
2022/10/19 16:08:43;;;;;;;6.15;3.17;;;;;;;;;;6105221;23;20509;-72
2022/10/19 16:11:28;;;;;;;5.60;2.72;;;;;;;;;;6233291;22;20005;-71
2022/10/19 16:14:14;;;;;;;8.63;2.75;;;;;;;;;;6104175;23;20005;-69
2022/10/19 16:16:59;;;;;;;5.32;3.42;;;;;;;;;;6233551;22;20002;-69
2022/10/19 16:19:44;;;;;;;6.00;3.28;;;;;;;;;;6105393;23;20005;-70
2022/10/19 16:22:30;;;;;;;7.00;3.20;;;;;;;;;;6105307;23;20059;-70
2022/10/19 16:25:15;;;;;;;4.97;3.40;;;;;;;;;;6124691;23;20005;-77
2022/10/19 16:28:00;;;;;;;9.40;3.63;;;;;;;;;;6234049;22;20028;-77
2022/10/19 16:30:50;;;;;;;11.90;4.00;;;;;;;;;;6124505;23;20006;-78
2022/10/19 16:33:38;;;;;;;7.78;3.70;;;;;;;;;;6105154;23;20031;-79
2022/10/19 16:36:55;;;;;;;9.63;3.45;;;;;;;;;;6125077;23;20709;-78
2022/10/19 16:39:41;;;;;;;7.18;3.70;;;;;;;;;;6231809;22;20092;-79
2022/10/19 16:42:26;;;;;;;8.77;3.67;;;;;;;;;;6125380;23;20009;-76